sensor_id;sensor_type;location;lat;lon;timestamp;P1;durP1;ratioP1;P2;durP2;ratioP2
85342;SDS011;75760;31.390;34.904;2024-02-16T00:00:43;11.80;;;2.40;;
85342;SDS011;75760;31.390;34.904;2024-02-16T00:03:11;6.33;;;3.00;;
85342;SDS011;75760;31.390;34.904;2024-02-16T00:05:37;9.63;;;3.33;;
85342;SDS011;75760;31.390;34.904;2024-02-16T00:08:03;8.05;;;2.72;;
85342;SDS011;75760;31.390;34.904;2024-02-16T00:10:29;12.43;;;2.70;;
85342;SDS011;75760;31.390;34.904;2024-02-16T00:12:55;12.45;;;3.65;;
85342;SDS011;75760;31.390;34.904;2024-02-16T00:15:21;6.95;;;2.40;;
85342;SDS011;75760;31.390;34.904;2024-02-16T00:17:47;15.73;;;3.70;;
85342;SDS011;75760;31.390;34.904;2024-02-16T00:20:13;7.53;;;2.40;;
85342;SDS011;75760;31.390;34.904;2024-02-16T00:22:39;9.05;;;2.40;;
85342;SDS011;75760;31.390;34.904;2024-02-16T00:25:05;10.40;;;2.10;;
85342;SDS011;75760;31.390;34.904;2024-02-16T00:27:31;8.52;;;3.45;;
85342;SDS011;75760;31.390;34.904;2024-02-16T00:29:56;7.82;;;3.10;;
85342;SDS011;75760;31.390;34.904;2024-02-16T00:32:22;6.67;;;2.77;;
85342;SDS011;75760;31.390;34.904;2024-02-16T00:34:50;10.63;;;2.60;;
85342;SDS011;75760;31.390;34.904;2024-02-16T00:37:18;11.48;;;2.63;;
85342;SDS011;75760;31.390;34.904;2024-02-16T00:39:44;9.27;;;2.07;;
85342;SDS011;75760;31.390;34.904;2024-02-16T00:42:09;8.77;;;2.13;;
85342;SDS011;75760;31.390;34.904;2024-02-16T00:44:36;12.98;;;2.45;;
85342;SDS011;75760;31.390;34.904;2024-02-16T00:47:02;11.32;;;3.60;;
85342;SDS011;75760;31.390;34.904;2024-02-16T00:49:31;8.65;;;2.35;;
85342;SDS011;75760;31.390;34.904;2024-02-16T00:51:57;10.60;;;2.75;;
85342;SDS011;75760;31.390;34.904;2024-02-16T00:54:22;10.27;;;3.00;;
85342;SDS011;75760;31.390;34.904;2024-02-16T00:56:48;10.07;;;2.20;;
85342;SDS011;75760;31.390;34.904;2024-02-16T00:59:14;7.97;;;2.60;;
85342;SDS011;75760;31.390;34.904;2024-02-16T01:01:40;10.65;;;3.10;;
85342;SDS011;75760;31.390;34.904;2024-02-16T01:04:05;13.83;;;3.70;;
85342;SDS011;75760;31.390;34.904;2024-02-16T01:06:32;13.30;;;4.25;;
85342;SDS011;75760;31.390;34.904;2024-02-16T01:08:58;16.45;;;4.38;;
85342;SDS011;75760;31.390;34.904;2024-02-16T01:11:23;12.43;;;4.90;;
85342;SDS011;75760;31.390;34.904;2024-02-16T01:13:49;13.02;;;4.97;;
85342;SDS011;75760;31.390;34.904;2024-02-16T01:16:15;10.77;;;4.40;;
85342;SDS011;75760;31.390;34.904;2024-02-16T01:18:44;13.20;;;4.20;;
85342;SDS011;75760;31.390;34.904;2024-02-16T01:21:10;8.95;;;3.30;;
85342;SDS011;75760;31.390;34.904;2024-02-16T01:23:36;13.00;;;4.03;;
85342;SDS011;75760;31.390;34.904;2024-02-16T01:26:02;11.65;;;3.53;;
85342;SDS011;75760;31.390;34.904;2024-02-16T01:28:27;16.40;;;4.23;;
85342;SDS011;75760;31.390;34.904;2024-02-16T01:30:53;12.27;;;3.90;;
85342;SDS011;75760;31.390;34.904;2024-02-16T01:33:21;11.32;;;3.70;;
85342;SDS011;75760;31.390;34.904;2024-02-16T01:35:47;8.70;;;2.63;;
85342;SDS011;75760;31.390;34.904;2024-02-16T01:38:13;14.23;;;2.95;;
85342;SDS011;75760;31.390;34.904;2024-02-16T01:40:38;8.47;;;3.30;;
85342;SDS011;75760;31.390;34.904;2024-02-16T01:43:04;8.55;;;2.83;;
85342;SDS011;75760;31.390;34.904;2024-02-16T01:45:30;10.20;;;2.87;;
85342;SDS011;75760;31.390;34.904;2024-02-16T01:47:56;14.40;;;3.22;;
85342;SDS011;75760;31.390;34.904;2024-02-16T01:50:21;11.17;;;3.80;;
85342;SDS011;75760;31.390;34.904;2024-02-16T01:52:48;14.30;;;3.90;;
85342;SDS011;75760;31.390;34.904;2024-02-16T01:55:17;13.90;;;3.83;;
85342;SDS011;75760;31.390;34.904;2024-02-16T01:57:43;8.63;;;3.33;;
85342;SDS011;75760;31.390;34.904;2024-02-16T02:00:10;15.40;;;3.40;;
85342;SDS011;75760;31.390;34.904;2024-02-16T02:02:37;15.25;;;3.60;;
85342;SDS011;75760;31.390;34.904;2024-02-16T02:05:03;10.93;;;3.55;;
85342;SDS011;75760;31.390;34.904;2024-02-16T02:07:29;16.85;;;3.42;;
85342;SDS011;75760;31.390;34.904;2024-02-16T02:09:55;6.33;;;2.67;;
85342;SDS011;75760;31.390;34.904;2024-02-16T02:12:21;15.68;;;3.50;;
85342;SDS011;75760;31.390;34.904;2024-02-16T02:14:47;10.77;;;3.30;;
85342;SDS011;75760;31.390;34.904;2024-02-16T02:17:14;12.65;;;2.67;;
85342;SDS011;75760;31.390;34.904;2024-02-16T02:19:39;12.40;;;3.10;;
85342;SDS011;75760;31.390;34.904;2024-02-16T02:22:23;13.73;;;3.22;;
85342;SDS011;75760;31.390;34.904;2024-02-16T02:24:49;14.97;;;2.50;;
85342;SDS011;75760;31.390;34.904;2024-02-16T02:27:15;20.50;;;3.00;;
85342;SDS011;75760;31.390;34.904;2024-02-16T02:29:41;9.43;;;2.58;;
85342;SDS011;75760;31.390;34.904;2024-02-16T02:32:07;17.63;;;2.80;;
85342;SDS011;75760;31.390;34.904;2024-02-16T02:34:33;13.68;;;3.63;;
85342;SDS011;75760;31.390;34.904;2024-02-16T02:36:59;12.97;;;3.43;;
85342;SDS011;75760;31.390;34.904;2024-02-16T02:39:25;11.65;;;3.00;;
85342;SDS011;75760;31.390;34.904;2024-02-16T02:41:51;12.07;;;2.80;;
85342;SDS011;75760;31.390;34.904;2024-02-16T02:44:17;10.57;;;2.80;;
85342;SDS011;75760;31.390;34.904;2024-02-16T02:46:44;15.70;;;3.50;;
85342;SDS011;75760;31.390;34.904;2024-02-16T02:49:10;15.02;;;3.35;;
85342;SDS011;75760;31.390;34.904;2024-02-16T02:51:35;10.33;;;3.00;;
85342;SDS011;75760;31.390;34.904;2024-02-16T02:54:01;13.02;;;3.20;;
85342;SDS011;75760;31.390;34.904;2024-02-16T02:56:26;12.17;;;3.50;;
85342;SDS011;75760;31.390;34.904;2024-02-16T02:58:52;17.30;;;2.87;;
85342;SDS011;75760;31.390;34.904;2024-02-16T03:01:18;15.30;;;2.72;;
85342;SDS011;75760;31.390;34.904;2024-02-16T03:03:45;10.00;;;2.80;;
85342;SDS011;75760;31.390;34.904;2024-02-16T03:06:11;13.00;;;3.17;;
85342;SDS011;75760;31.390;34.904;2024-02-16T03:08:38;11.65;;;3.10;;
85342;SDS011;75760;31.390;34.904;2024-02-16T03:11:04;19.05;;;4.05;;
85342;SDS011;75760;31.390;34.904;2024-02-16T03:13:31;13.23;;;3.43;;
85342;SDS011;75760;31.390;34.904;2024-02-16T03:15:57;10.43;;;3.40;;
85342;SDS011;75760;31.390;34.904;2024-02-16T03:18:23;9.57;;;3.25;;
85342;SDS011;75760;31.390;34.904;2024-02-16T03:20:48;13.63;;;3.47;;
85342;SDS011;75760;31.390;34.904;2024-02-16T03:23:15;15.40;;;3.90;;
85342;SDS011;75760;31.390;34.904;2024-02-16T03:25:41;12.27;;;3.47;;
85342;SDS011;75760;31.390;34.904;2024-02-16T03:28:13;14.00;;;4.25;;
85342;SDS011;75760;31.390;34.904;2024-02-16T03:30:39;12.37;;;3.80;;
85342;SDS011;75760;31.390;34.904;2024-02-16T03:33:05;11.60;;;4.13;;
85342;SDS011;75760;31.390;34.904;2024-02-16T03:35:30;14.82;;;4.32;;
85342;SDS011;75760;31.390;34.904;2024-02-16T03:37:56;10.90;;;3.90;;
85342;SDS011;75760;31.390;34.904;2024-02-16T03:40:22;13.73;;;3.70;;
85342;SDS011;75760;31.390;34.904;2024-02-16T03:42:50;19.13;;;3.92;;
85342;SDS011;75760;31.390;34.904;2024-02-16T03:45:16;13.13;;;3.88;;
85342;SDS011;75760;31.390;34.904;2024-02-16T03:47:41;13.98;;;3.65;;
85342;SDS011;75760;31.390;34.904;2024-02-16T03:50:07;13.23;;;3.83;;
85342;SDS011;75760;31.390;34.904;2024-02-16T03:52:33;14.52;;;3.10;;
85342;SDS011;75760;31.390;34.904;2024-02-16T03:54:59;10.77;;;2.83;;
85342;SDS011;75760;31.390;34.904;2024-02-16T03:57:25;9.93;;;3.00;;
85342;SDS011;75760;31.390;34.904;2024-02-16T03:59:50;14.93;;;2.77;;
85342;SDS011;75760;31.390;34.904;2024-02-16T04:02:16;14.25;;;3.15;;
85342;SDS011;75760;31.390;34.904;2024-02-16T04:04:42;9.93;;;2.77;;
85342;SDS011;75760;31.390;34.904;2024-02-16T04:07:07;17.42;;;3.03;;
85342;SDS011;75760;31.390;34.904;2024-02-16T04:09:34;10.95;;;3.30;;
85342;SDS011;75760;31.390;34.904;2024-02-16T04:12:03;13.23;;;3.03;;
85342;SDS011;75760;31.390;34.904;2024-02-16T04:14:29;9.20;;;2.58;;
85342;SDS011;75760;31.390;34.904;2024-02-16T04:16:56;20.60;;;3.10;;
85342;SDS011;75760;31.390;34.904;2024-02-16T04:19:25;15.67;;;3.20;;
85342;SDS011;75760;31.390;34.904;2024-02-16T04:21:51;11.40;;;2.97;;
85342;SDS011;75760;31.390;34.904;2024-02-16T04:24:17;18.48;;;3.15;;
85342;SDS011;75760;31.390;34.904;2024-02-16T04:26:43;15.47;;;2.83;;
85342;SDS011;75760;31.390;34.904;2024-02-16T04:29:09;11.25;;;3.10;;
85342;SDS011;75760;31.390;34.904;2024-02-16T04:31:34;10.83;;;2.73;;
85342;SDS011;75760;31.390;34.904;2024-02-16T04:34:00;14.35;;;3.40;;
85342;SDS011;75760;31.390;34.904;2024-02-16T04:36:26;11.25;;;2.75;;
85342;SDS011;75760;31.390;34.904;2024-02-16T04:38:52;17.10;;;3.10;;
85342;SDS011;75760;31.390;34.904;2024-02-16T04:41:19;15.90;;;3.45;;
85342;SDS011;75760;31.390;34.904;2024-02-16T04:43:45;14.55;;;2.80;;
85342;SDS011;75760;31.390;34.904;2024-02-16T04:46:14;12.17;;;3.03;;
85342;SDS011;75760;31.390;34.904;2024-02-16T04:48:41;12.40;;;3.10;;
85342;SDS011;75760;31.390;34.904;2024-02-16T04:51:06;17.33;;;3.23;;
85342;SDS011;75760;31.390;34.904;2024-02-16T04:53:32;17.92;;;4.20;;
85342;SDS011;75760;31.390;34.904;2024-02-16T04:55:57;17.33;;;3.03;;
85342;SDS011;75760;31.390;34.904;2024-02-16T04:58:23;8.20;;;2.95;;
85342;SDS011;75760;31.390;34.904;2024-02-16T05:00:49;12.30;;;2.87;;
85342;SDS011;75760;31.390;34.904;2024-02-16T05:03:14;19.17;;;2.85;;
85342;SDS011;75760;31.390;34.904;2024-02-16T05:05:40;10.93;;;2.20;;
85342;SDS011;75760;31.390;34.904;2024-02-16T05:08:06;7.30;;;2.83;;
85342;SDS011;75760;31.390;34.904;2024-02-16T05:10:32;11.87;;;2.50;;
85342;SDS011;75760;31.390;34.904;2024-02-16T05:12:57;10.88;;;2.53;;
85342;SDS011;75760;31.390;34.904;2024-02-16T05:15:24;10.05;;;2.47;;
85342;SDS011;75760;31.390;34.904;2024-02-16T05:17:51;9.20;;;2.50;;
85342;SDS011;75760;31.390;34.904;2024-02-16T05:20:16;10.40;;;2.40;;
85342;SDS011;75760;31.390;34.904;2024-02-16T05:22:44;13.00;;;2.67;;
85342;SDS011;75760;31.390;34.904;2024-02-16T05:25:14;7.63;;;2.60;;
85342;SDS011;75760;31.390;34.904;2024-02-16T05:27:41;6.57;;;2.78;;
85342;SDS011;75760;31.390;34.904;2024-02-16T05:30:08;6.78;;;2.15;;
85342;SDS011;75760;31.390;34.904;2024-02-16T05:32:35;7.75;;;2.10;;
85342;SDS011;75760;31.390;34.904;2024-02-16T05:35:02;17.03;;;2.70;;
85342;SDS011;75760;31.390;34.904;2024-02-16T05:37:48;11.75;;;2.42;;
85342;SDS011;75760;31.390;34.904;2024-02-16T05:40:19;14.35;;;2.58;;
85342;SDS011;75760;31.390;34.904;2024-02-16T05:42:52;7.47;;;2.38;;
85342;SDS011;75760;31.390;34.904;2024-02-16T05:45:19;9.32;;;2.72;;
85342;SDS011;75760;31.390;34.904;2024-02-16T05:47:46;11.10;;;2.30;;
85342;SDS011;75760;31.390;34.904;2024-02-16T05:50:12;10.20;;;2.53;;
85342;SDS011;75760;31.390;34.904;2024-02-16T05:52:39;11.48;;;2.95;;
85342;SDS011;75760;31.390;34.904;2024-02-16T05:55:06;8.63;;;2.35;;
85342;SDS011;75760;31.390;34.904;2024-02-16T05:57:33;7.22;;;2.78;;
85342;SDS011;75760;31.390;34.904;2024-02-16T06:00:00;11.53;;;2.23;;
85342;SDS011;75760;31.390;34.904;2024-02-16T06:02:26;10.68;;;2.03;;
85342;SDS011;75760;31.390;34.904;2024-02-16T06:04:55;10.18;;;2.13;;
85342;SDS011;75760;31.390;34.904;2024-02-16T06:07:21;12.60;;;2.42;;
85342;SDS011;75760;31.390;34.904;2024-02-16T06:09:47;7.50;;;2.33;;
85342;SDS011;75760;31.390;34.904;2024-02-16T06:12:12;8.73;;;2.30;;
85342;SDS011;75760;31.390;34.904;2024-02-16T06:14:38;10.40;;;2.10;;
85342;SDS011;75760;31.390;34.904;2024-02-16T06:17:04;8.13;;;2.00;;
85342;SDS011;75760;31.390;34.904;2024-02-16T06:19:29;8.27;;;2.80;;
85342;SDS011;75760;31.390;34.904;2024-02-16T06:21:55;9.47;;;2.90;;
85342;SDS011;75760;31.390;34.904;2024-02-16T06:24:24;6.25;;;2.75;;
85342;SDS011;75760;31.390;34.904;2024-02-16T06:26:49;6.20;;;2.93;;
85342;SDS011;75760;31.390;34.904;2024-02-16T06:29:17;9.27;;;2.80;;
85342;SDS011;75760;31.390;34.904;2024-02-16T06:31:45;12.02;;;2.97;;
85342;SDS011;75760;31.390;34.904;2024-02-16T06:34:13;11.18;;;2.70;;
85342;SDS011;75760;31.390;34.904;2024-02-16T06:36:40;9.75;;;2.80;;
85342;SDS011;75760;31.390;34.904;2024-02-16T06:39:06;10.43;;;2.90;;
85342;SDS011;75760;31.390;34.904;2024-02-16T06:41:32;9.68;;;3.20;;
85342;SDS011;75760;31.390;34.904;2024-02-16T06:43:58;10.50;;;3.67;;
85342;SDS011;75760;31.390;34.904;2024-02-16T06:46:23;14.38;;;4.75;;
85342;SDS011;75760;31.390;34.904;2024-02-16T06:48:52;13.55;;;4.22;;
85342;SDS011;75760;31.390;34.904;2024-02-16T06:51:21;17.47;;;4.73;;
85342;SDS011;75760;31.390;34.904;2024-02-16T06:53:51;10.45;;;4.63;;
85342;SDS011;75760;31.390;34.904;2024-02-16T06:56:17;13.20;;;5.07;;
85342;SDS011;75760;31.390;34.904;2024-02-16T06:58:43;15.25;;;6.03;;
85342;SDS011;75760;31.390;34.904;2024-02-16T07:01:10;16.92;;;5.90;;
85342;SDS011;75760;31.390;34.904;2024-02-16T07:03:36;14.40;;;6.53;;
85342;SDS011;75760;31.390;34.904;2024-02-16T07:06:02;13.85;;;5.88;;
85342;SDS011;75760;31.390;34.904;2024-02-16T07:08:28;10.30;;;5.65;;
85342;SDS011;75760;31.390;34.904;2024-02-16T07:10:54;19.17;;;5.90;;
85342;SDS011;75760;31.390;34.904;2024-02-16T07:13:22;10.65;;;4.75;;
85342;SDS011;75760;31.390;34.904;2024-02-16T07:15:48;11.20;;;4.10;;
85342;SDS011;75760;31.390;34.904;2024-02-16T07:18:14;10.13;;;4.00;;
85342;SDS011;75760;31.390;34.904;2024-02-16T07:20:40;8.82;;;3.28;;
85342;SDS011;75760;31.390;34.904;2024-02-16T07:23:06;10.90;;;3.50;;
85342;SDS011;75760;31.390;34.904;2024-02-16T07:25:31;13.43;;;3.60;;
85342;SDS011;75760;31.390;34.904;2024-02-16T07:27:57;7.53;;;3.60;;
85342;SDS011;75760;31.390;34.904;2024-02-16T07:30:23;10.43;;;3.60;;
85342;SDS011;75760;31.390;34.904;2024-02-16T07:32:51;10.90;;;3.30;;
85342;SDS011;75760;31.390;34.904;2024-02-16T07:35:20;8.05;;;3.30;;
85342;SDS011;75760;31.390;34.904;2024-02-16T07:37:49;10.18;;;3.58;;
85342;SDS011;75760;31.390;34.904;2024-02-16T07:40:19;6.63;;;3.63;;
85342;SDS011;75760;31.390;34.904;2024-02-16T07:42:45;8.80;;;2.97;;
85342;SDS011;75760;31.390;34.904;2024-02-16T07:45:11;9.38;;;3.03;;
85342;SDS011;75760;31.390;34.904;2024-02-16T07:47:40;10.00;;;3.60;;
85342;SDS011;75760;31.390;34.904;2024-02-16T07:50:06;10.95;;;3.30;;
85342;SDS011;75760;31.390;34.904;2024-02-16T07:52:32;7.03;;;3.07;;
85342;SDS011;75760;31.390;34.904;2024-02-16T07:54:58;9.43;;;3.22;;
85342;SDS011;75760;31.390;34.904;2024-02-16T07:57:24;9.13;;;3.63;;
85342;SDS011;75760;31.390;34.904;2024-02-16T07:59:50;6.97;;;3.03;;
85342;SDS011;75760;31.390;34.904;2024-02-16T08:02:15;7.53;;;3.35;;
85342;SDS011;75760;31.390;34.904;2024-02-16T08:04:43;8.03;;;3.20;;
85342;SDS011;75760;31.390;34.904;2024-02-16T08:07:12;7.35;;;3.35;;
85342;SDS011;75760;31.390;34.904;2024-02-16T08:09:37;8.47;;;3.10;;
85342;SDS011;75760;31.390;34.904;2024-02-16T08:12:04;8.50;;;3.30;;
85342;SDS011;75760;31.390;34.904;2024-02-16T08:14:32;9.95;;;3.78;;
85342;SDS011;75760;31.390;34.904;2024-02-16T08:16:58;9.30;;;3.83;;
85342;SDS011;75760;31.390;34.904;2024-02-16T08:19:26;6.30;;;3.00;;
85342;SDS011;75760;31.390;34.904;2024-02-16T08:21:58;7.63;;;3.20;;
85342;SDS011;75760;31.390;34.904;2024-02-16T08:24:24;6.85;;;2.80;;
85342;SDS011;75760;31.390;34.904;2024-02-16T08:26:50;6.93;;;2.88;;
85342;SDS011;75760;31.390;34.904;2024-02-16T08:29:16;10.60;;;3.20;;
85342;SDS011;75760;31.390;34.904;2024-02-16T08:31:41;6.63;;;2.75;;
85342;SDS011;75760;31.390;34.904;2024-02-16T08:34:09;4.87;;;2.67;;
85342;SDS011;75760;31.390;34.904;2024-02-16T08:36:35;7.72;;;3.38;;
85342;SDS011;75760;31.390;34.904;2024-02-16T08:39:04;11.65;;;3.40;;
85342;SDS011;75760;31.390;34.904;2024-02-16T08:41:30;5.20;;;2.10;;
85342;SDS011;75760;31.390;34.904;2024-02-16T08:43:55;7.47;;;2.70;;
85342;SDS011;75760;31.390;34.904;2024-02-16T08:46:22;6.28;;;2.42;;
85342;SDS011;75760;31.390;34.904;2024-02-16T08:48:48;5.77;;;2.80;;
85342;SDS011;75760;31.390;34.904;2024-02-16T08:51:14;6.00;;;2.45;;
85342;SDS011;75760;31.390;34.904;2024-02-16T08:53:40;10.80;;;2.83;;
85342;SDS011;75760;31.390;34.904;2024-02-16T08:56:11;8.70;;;2.50;;
85342;SDS011;75760;31.390;34.904;2024-02-16T08:58:37;10.05;;;2.70;;
85342;SDS011;75760;31.390;34.904;2024-02-16T09:01:04;7.07;;;2.70;;
85342;SDS011;75760;31.390;34.904;2024-02-16T09:03:30;8.98;;;2.63;;
85342;SDS011;75760;31.390;34.904;2024-02-16T09:06:03;5.15;;;2.50;;
85342;SDS011;75760;31.390;34.904;2024-02-16T09:08:29;4.35;;;2.10;;
85342;SDS011;75760;31.390;34.904;2024-02-16T09:11:03;8.43;;;2.75;;
85342;SDS011;75760;31.390;34.904;2024-02-16T09:13:31;6.33;;;2.50;;
85342;SDS011;75760;31.390;34.904;2024-02-16T09:15:57;7.18;;;2.58;;
85342;SDS011;75760;31.390;34.904;2024-02-16T09:18:23;8.23;;;2.65;;
85342;SDS011;75760;31.390;34.904;2024-02-16T09:20:48;5.93;;;2.07;;
85342;SDS011;75760;31.390;34.904;2024-02-16T09:23:14;8.93;;;2.70;;
85342;SDS011;75760;31.390;34.904;2024-02-16T09:25:40;8.20;;;2.70;;
85342;SDS011;75760;31.390;34.904;2024-02-16T09:28:06;7.47;;;2.47;;
85342;SDS011;75760;31.390;34.904;2024-02-16T09:30:32;7.95;;;2.30;;
85342;SDS011;75760;31.390;34.904;2024-02-16T09:32:58;9.53;;;2.67;;
85342;SDS011;75760;31.390;34.904;2024-02-16T09:35:23;10.80;;;2.78;;
85342;SDS011;75760;31.390;34.904;2024-02-16T09:37:49;5.93;;;2.63;;
85342;SDS011;75760;31.390;34.904;2024-02-16T09:40:15;10.52;;;2.65;;
85342;SDS011;75760;31.390;34.904;2024-02-16T09:42:47;9.93;;;3.20;;
85342;SDS011;75760;31.390;34.904;2024-02-16T09:45:14;7.78;;;2.60;;
85342;SDS011;75760;31.390;34.904;2024-02-16T09:47:44;8.88;;;2.78;;
85342;SDS011;75760;31.390;34.904;2024-02-16T09:50:14;8.75;;;2.58;;
85342;SDS011;75760;31.390;34.904;2024-02-16T09:52:40;7.40;;;2.35;;
85342;SDS011;75760;31.390;34.904;2024-02-16T09:55:07;6.90;;;2.30;;
85342;SDS011;75760;31.390;34.904;2024-02-16T09:57:37;6.28;;;2.47;;
85342;SDS011;75760;31.390;34.904;2024-02-16T10:00:02;9.95;;;2.53;;
85342;SDS011;75760;31.390;34.904;2024-02-16T10:05:13;5.95;;;2.13;;
85342;SDS011;75760;31.390;34.904;2024-02-16T10:07:41;6.88;;;2.05;;
85342;SDS011;75760;31.390;34.904;2024-02-16T10:10:19;6.85;;;2.90;;
85342;SDS011;75760;31.390;34.904;2024-02-16T10:13:01;14.18;;;3.22;;
85342;SDS011;75760;31.390;34.904;2024-02-16T10:15:29;7.20;;;3.10;;
85342;SDS011;75760;31.390;34.904;2024-02-16T10:18:02;13.02;;;2.80;;
85342;SDS011;75760;31.390;34.904;2024-02-16T10:20:34;12.50;;;3.28;;
85342;SDS011;75760;31.390;34.904;2024-02-16T10:23:07;7.15;;;2.83;;
85342;SDS011;75760;31.390;34.904;2024-02-16T10:25:35;8.55;;;2.67;;
85342;SDS011;75760;31.390;34.904;2024-02-16T10:28:03;11.43;;;3.90;;
85342;SDS011;75760;31.390;34.904;2024-02-16T10:30:34;8.40;;;2.55;;
85342;SDS011;75760;31.390;34.904;2024-02-16T10:33:02;8.30;;;2.17;;
85342;SDS011;75760;31.390;34.904;2024-02-16T10:35:29;4.78;;;1.63;;
85342;SDS011;75760;31.390;34.904;2024-02-16T10:37:55;7.13;;;2.15;;
85342;SDS011;75760;31.390;34.904;2024-02-16T10:40:23;6.77;;;1.90;;
85342;SDS011;75760;31.390;34.904;2024-02-16T10:42:49;7.28;;;2.17;;
85342;SDS011;75760;31.390;34.904;2024-02-16T10:45:16;7.13;;;2.30;;
85342;SDS011;75760;31.390;34.904;2024-02-16T10:47:42;5.18;;;2.10;;
85342;SDS011;75760;31.390;34.904;2024-02-16T10:50:08;7.27;;;2.20;;
85342;SDS011;75760;31.390;34.904;2024-02-16T10:52:34;6.88;;;1.85;;
85342;SDS011;75760;31.390;34.904;2024-02-16T10:55:03;11.38;;;1.98;;
85342;SDS011;75760;31.390;34.904;2024-02-16T10:57:30;4.43;;;1.43;;
85342;SDS011;75760;31.390;34.904;2024-02-16T10:59:58;7.32;;;1.73;;
85342;SDS011;75760;31.390;34.904;2024-02-16T11:02:24;7.32;;;1.92;;
85342;SDS011;75760;31.390;34.904;2024-02-16T11:04:52;7.95;;;1.50;;
85342;SDS011;75760;31.390;34.904;2024-02-16T11:07:18;8.75;;;1.85;;
85342;SDS011;75760;31.390;34.904;2024-02-16T11:09:45;4.07;;;1.30;;
85342;SDS011;75760;31.390;34.904;2024-02-16T11:12:12;6.82;;;1.17;;
85342;SDS011;75760;31.390;34.904;2024-02-16T11:14:42;4.75;;;1.77;;
85342;SDS011;75760;31.390;34.904;2024-02-16T11:17:11;10.40;;;1.50;;
85342;SDS011;75760;31.390;34.904;2024-02-16T11:19:42;5.50;;;1.30;;
85342;SDS011;75760;31.390;34.904;2024-02-16T11:22:09;4.03;;;1.93;;
85342;SDS011;75760;31.390;34.904;2024-02-16T11:24:36;7.40;;;1.52;;
85342;SDS011;75760;31.390;34.904;2024-02-16T11:27:07;4.43;;;1.30;;
85342;SDS011;75760;31.390;34.904;2024-02-16T11:29:34;4.50;;;1.45;;
85342;SDS011;75760;31.390;34.904;2024-02-16T11:32:02;7.70;;;1.70;;
85342;SDS011;75760;31.390;34.904;2024-02-16T11:34:28;7.10;;;1.50;;
85342;SDS011;75760;31.390;34.904;2024-02-16T11:36:58;6.88;;;1.63;;
85342;SDS011;75760;31.390;34.904;2024-02-16T11:39:25;9.57;;;1.80;;
85342;SDS011;75760;31.390;34.904;2024-02-16T11:42:01;4.22;;;1.63;;
85342;SDS011;75760;31.390;34.904;2024-02-16T11:44:36;8.43;;;1.60;;
85342;SDS011;75760;31.390;34.904;2024-02-16T11:47:05;5.50;;;1.57;;
85342;SDS011;75760;31.390;34.904;2024-02-16T11:49:35;10.82;;;1.70;;
85342;SDS011;75760;31.390;34.904;2024-02-16T11:52:03;6.40;;;1.73;;
85342;SDS011;75760;31.390;34.904;2024-02-16T11:54:29;8.53;;;1.70;;
85342;SDS011;75760;31.390;34.904;2024-02-16T11:56:56;7.35;;;1.48;;
85342;SDS011;75760;31.390;34.904;2024-02-16T11:59:22;7.95;;;1.88;;
85342;SDS011;75760;31.390;34.904;2024-02-16T12:01:51;7.75;;;1.60;;
85342;SDS011;75760;31.390;34.904;2024-02-16T12:04:22;6.30;;;1.20;;
85342;SDS011;75760;31.390;34.904;2024-02-16T12:06:50;7.85;;;1.55;;
85342;SDS011;75760;31.390;34.904;2024-02-16T12:09:18;6.22;;;1.33;;
85342;SDS011;75760;31.390;34.904;2024-02-16T12:11:46;7.75;;;1.58;;
85342;SDS011;75760;31.390;34.904;2024-02-16T12:14:13;6.70;;;1.35;;
85342;SDS011;75760;31.390;34.904;2024-02-16T12:16:38;7.70;;;1.60;;
85342;SDS011;75760;31.390;34.904;2024-02-16T12:19:04;5.93;;;2.03;;
85342;SDS011;75760;31.390;34.904;2024-02-16T12:21:30;7.63;;;2.43;;
85342;SDS011;75760;31.390;34.904;2024-02-16T12:23:56;5.30;;;2.30;;
85342;SDS011;75760;31.390;34.904;2024-02-16T12:26:21;8.20;;;2.33;;
85342;SDS011;75760;31.390;34.904;2024-02-16T12:28:47;11.73;;;2.50;;
85342;SDS011;75760;31.390;34.904;2024-02-16T12:31:20;6.50;;;2.10;;
85342;SDS011;75760;31.390;34.904;2024-02-16T12:33:46;7.15;;;2.42;;
85342;SDS011;75760;31.390;34.904;2024-02-16T12:36:12;8.55;;;2.38;;
85342;SDS011;75760;31.390;34.904;2024-02-16T12:38:37;5.80;;;2.40;;
85342;SDS011;75760;31.390;34.904;2024-02-16T12:41:03;12.02;;;2.50;;
85342;SDS011;75760;31.390;34.904;2024-02-16T12:43:29;8.87;;;2.87;;
85342;SDS011;75760;31.390;34.904;2024-02-16T12:45:54;7.93;;;2.50;;
85342;SDS011;75760;31.390;34.904;2024-02-16T12:48:21;6.90;;;2.40;;
85342;SDS011;75760;31.390;34.904;2024-02-16T12:50:47;6.70;;;3.10;;
85342;SDS011;75760;31.390;34.904;2024-02-16T12:53:14;7.30;;;2.58;;
85342;SDS011;75760;31.390;34.904;2024-02-16T12:55:40;8.15;;;2.92;;
85342;SDS011;75760;31.390;34.904;2024-02-16T12:58:06;7.67;;;2.70;;
85342;SDS011;75760;31.390;34.904;2024-02-16T13:00:31;11.03;;;3.10;;
85342;SDS011;75760;31.390;34.904;2024-02-16T13:02:57;9.63;;;2.65;;
85342;SDS011;75760;31.390;34.904;2024-02-16T13:05:22;10.40;;;2.97;;
85342;SDS011;75760;31.390;34.904;2024-02-16T13:07:48;12.57;;;3.45;;
85342;SDS011;75760;31.390;34.904;2024-02-16T13:10:14;9.60;;;3.20;;
85342;SDS011;75760;31.390;34.904;2024-02-16T13:12:39;11.68;;;2.83;;
85342;SDS011;75760;31.390;34.904;2024-02-16T13:15:08;9.55;;;2.92;;
85342;SDS011;75760;31.390;34.904;2024-02-16T13:17:33;9.07;;;3.20;;
85342;SDS011;75760;31.390;34.904;2024-02-16T13:19:59;9.88;;;3.10;;
85342;SDS011;75760;31.390;34.904;2024-02-16T13:22:31;8.30;;;3.63;;
85342;SDS011;75760;31.390;34.904;2024-02-16T13:25:00;11.57;;;4.10;;
85342;SDS011;75760;31.390;34.904;2024-02-16T13:27:28;10.35;;;3.60;;
85342;SDS011;75760;31.390;34.904;2024-02-16T13:29:54;8.80;;;3.28;;
85342;SDS011;75760;31.390;34.904;2024-02-16T13:32:19;10.23;;;3.93;;
85342;SDS011;75760;31.390;34.904;2024-02-16T13:34:45;15.55;;;4.40;;
85342;SDS011;75760;31.390;34.904;2024-02-16T13:37:11;12.03;;;4.20;;
85342;SDS011;75760;31.390;34.904;2024-02-16T13:39:36;15.83;;;4.20;;
85342;SDS011;75760;31.390;34.904;2024-02-16T13:42:02;11.50;;;4.90;;
85342;SDS011;75760;31.390;34.904;2024-02-16T13:44:28;15.10;;;4.57;;
85342;SDS011;75760;31.390;34.904;2024-02-16T13:46:53;8.63;;;3.90;;
85342;SDS011;75760;31.390;34.904;2024-02-16T13:49:19;9.97;;;3.73;;
85342;SDS011;75760;31.390;34.904;2024-02-16T13:51:45;12.60;;;4.22;;
85342;SDS011;75760;31.390;34.904;2024-02-16T13:54:11;11.35;;;4.50;;
85342;SDS011;75760;31.390;34.904;2024-02-16T13:56:37;9.00;;;4.28;;
85342;SDS011;75760;31.390;34.904;2024-02-16T13:59:04;12.30;;;4.37;;
85342;SDS011;75760;31.390;34.904;2024-02-16T14:01:30;12.20;;;4.82;;
85342;SDS011;75760;31.390;34.904;2024-02-16T14:03:56;9.55;;;4.55;;
85342;SDS011;75760;31.390;34.904;2024-02-16T14:06:21;15.17;;;4.40;;
85342;SDS011;75760;31.390;34.904;2024-02-16T14:08:47;10.65;;;4.38;;
85342;SDS011;75760;31.390;34.904;2024-02-16T14:11:14;10.90;;;5.47;;
85342;SDS011;75760;31.390;34.904;2024-02-16T14:13:39;11.93;;;4.93;;
85342;SDS011;75760;31.390;34.904;2024-02-16T14:16:05;9.10;;;5.43;;
85342;SDS011;75760;31.390;34.904;2024-02-16T14:18:32;10.20;;;4.57;;
85342;SDS011;75760;31.390;34.904;2024-02-16T14:20:58;11.20;;;5.13;;
85342;SDS011;75760;31.390;34.904;2024-02-16T14:23:24;11.37;;;4.63;;
85342;SDS011;75760;31.390;34.904;2024-02-16T14:25:49;10.00;;;4.40;;
85342;SDS011;75760;31.390;34.904;2024-02-16T14:28:15;9.32;;;4.50;;